sensor_id;sensor_type;location;lat;lon;timestamp;temperature;humidity
39665;DHT22;26679;50.872;4.332;2022-09-24T00:02:19;14.10;99.90
39665;DHT22;26679;50.872;4.332;2022-09-24T00:04:44;14.10;99.90
39665;DHT22;26679;50.872;4.332;2022-09-24T00:07:10;14.10;99.90
39665;DHT22;26679;50.872;4.332;2022-09-24T00:09:35;14.10;99.90
39665;DHT22;26679;50.872;4.332;2022-09-24T00:12:01;14.10;99.90
39665;DHT22;26679;50.872;4.332;2022-09-24T00:14:27;14.00;99.90
39665;DHT22;26679;50.872;4.332;2022-09-24T00:16:52;14.00;99.90
39665;DHT22;26679;50.872;4.332;2022-09-24T00:19:17;14.00;99.90
39665;DHT22;26679;50.872;4.332;2022-09-24T00:21:43;14.00;99.90
39665;DHT22;26679;50.872;4.332;2022-09-24T00:24:11;13.90;99.90
39665;DHT22;26679;50.872;4.332;2022-09-24T00:26:57;14.00;99.90
39665;DHT22;26679;50.872;4.332;2022-09-24T00:29:22;13.90;99.90
39665;DHT22;26679;50.872;4.332;2022-09-24T00:31:52;13.90;99.90
39665;DHT22;26679;50.872;4.332;2022-09-24T00:34:18;13.90;99.90
39665;DHT22;26679;50.872;4.332;2022-09-24T00:36:43;14.00;99.90
39665;DHT22;26679;50.872;4.332;2022-09-24T00:39:11;13.90;99.90
39665;DHT22;26679;50.872;4.332;2022-09-24T00:41:37;13.90;99.90
39665;DHT22;26679;50.872;4.332;2022-09-24T00:46:41;14.00;99.90
39665;DHT22;26679;50.872;4.332;2022-09-24T00:49:11;14.00;99.90
39665;DHT22;26679;50.872;4.332;2022-09-24T00:51:37;13.90;99.90
39665;DHT22;26679;50.872;4.332;2022-09-24T00:54:05;13.90;99.90
39665;DHT22;26679;50.872;4.332;2022-09-24T00:56:33;13.80;99.90
39665;DHT22;26679;50.872;4.332;2022-09-24T00:59:00;13.70;99.90
39665;DHT22;26679;50.872;4.332;2022-09-24T01:01:27;13.60;99.90
39665;DHT22;26679;50.872;4.332;2022-09-24T01:03:54;13.40;99.90
39665;DHT22;26679;50.872;4.332;2022-09-24T01:06:20;13.50;99.90
39665;DHT22;26679;50.872;4.332;2022-09-24T01:08:46;13.60;99.90
39665;DHT22;26679;50.872;4.332;2022-09-24T01:31:45;13.90;99.90
39665;DHT22;26679;50.872;4.332;2022-09-24T01:34:12;13.90;99.90
39665;DHT22;26679;50.872;4.332;2022-09-24T01:36:39;13.90;99.90
39665;DHT22;26679;50.872;4.332;2022-09-24T01:39:06;13.90;99.90
39665;DHT22;26679;50.872;4.332;2022-09-24T01:41:32;13.90;99.90
39665;DHT22;26679;50.872;4.332;2022-09-24T01:43:58;13.90;99.90
39665;DHT22;26679;50.872;4.332;2022-09-24T01:46:24;13.90;99.90
39665;DHT22;26679;50.872;4.332;2022-09-24T01:48:50;13.90;99.90
39665;DHT22;26679;50.872;4.332;2022-09-24T01:53:50;13.90;99.90
39665;DHT22;26679;50.872;4.332;2022-09-24T01:56:21;13.90;99.90
39665;DHT22;26679;50.872;4.332;2022-09-24T01:58:50;13.90;99.90
39665;DHT22;26679;50.872;4.332;2022-09-24T02:03:57;13.80;99.90
39665;DHT22;26679;50.872;4.332;2022-09-24T02:06:28;13.80;99.90
39665;DHT22;26679;50.872;4.332;2022-09-24T02:08:55;13.90;99.90
39665;DHT22;26679;50.872;4.332;2022-09-24T02:11:21;13.80;99.90
39665;DHT22;26679;50.872;4.332;2022-09-24T02:13:50;13.80;99.90
39665;DHT22;26679;50.872;4.332;2022-09-24T02:16:23;13.80;99.90
39665;DHT22;26679;50.872;4.332;2022-09-24T02:18:51;13.90;99.90
39665;DHT22;26679;50.872;4.332;2022-09-24T02:21:19;13.80;99.90
39665;DHT22;26679;50.872;4.332;2022-09-24T02:23:47;13.90;99.90
39665;DHT22;26679;50.872;4.332;2022-09-24T02:26:14;13.90;99.90
39665;DHT22;26679;50.872;4.332;2022-09-24T02:28:39;14.00;99.90
39665;DHT22;26679;50.872;4.332;2022-09-24T02:31:06;14.00;99.90
39665;DHT22;26679;50.872;4.332;2022-09-24T02:33:33;14.00;99.90
39665;DHT22;26679;50.872;4.332;2022-09-24T02:36:10;14.00;99.90
39665;DHT22;26679;50.872;4.332;2022-09-24T02:38:36;14.00;99.90
39665;DHT22;26679;50.872;4.332;2022-09-24T02:41:02;13.90;99.90
39665;DHT22;26679;50.872;4.332;2022-09-24T02:43:27;13.90;99.90
39665;DHT22;26679;50.872;4.332;2022-09-24T02:45:53;13.90;99.90
39665;DHT22;26679;50.872;4.332;2022-09-24T02:48:18;13.90;99.90
39665;DHT22;26679;50.872;4.332;2022-09-24T02:50:44;14.00;99.90
39665;DHT22;26679;50.872;4.332;2022-09-24T02:53:10;14.00;99.90
39665;DHT22;26679;50.872;4.332;2022-09-24T02:55:35;14.00;99.90
39665;DHT22;26679;50.872;4.332;2022-09-24T02:58:01;14.00;99.90
39665;DHT22;26679;50.872;4.332;2022-09-24T03:00:26;14.00;99.90
39665;DHT22;26679;50.872;4.332;2022-09-24T03:02:53;13.90;99.90
39665;DHT22;26679;50.872;4.332;2022-09-24T03:05:18;13.90;99.90
39665;DHT22;26679;50.872;4.332;2022-09-24T03:07:44;14.00;99.90
39665;DHT22;26679;50.872;4.332;2022-09-24T03:10:10;14.00;99.90
39665;DHT22;26679;50.872;4.332;2022-09-24T03:12:36;13.90;99.90
39665;DHT22;26679;50.872;4.332;2022-09-24T03:15:02;13.90;99.90
39665;DHT22;26679;50.872;4.332;2022-09-24T03:17:28;13.80;99.90
39665;DHT22;26679;50.872;4.332;2022-09-24T03:19:53;13.90;99.90
39665;DHT22;26679;50.872;4.332;2022-09-24T03:22:19;13.90;99.90
39665;DHT22;26679;50.872;4.332;2022-09-24T03:24:44;13.80;99.90
39665;DHT22;26679;50.872;4.332;2022-09-24T03:27:10;13.80;99.90
39665;DHT22;26679;50.872;4.332;2022-09-24T03:29:35;13.80;99.90
39665;DHT22;26679;50.872;4.332;2022-09-24T03:32:12;13.80;99.90
39665;DHT22;26679;50.872;4.332;2022-09-24T03:34:37;13.70;99.90
39665;DHT22;26679;50.872;4.332;2022-09-24T03:37:03;13.70;99.90
39665;DHT22;26679;50.872;4.332;2022-09-24T03:39:28;13.70;99.90
39665;DHT22;26679;50.872;4.332;2022-09-24T03:41:54;13.70;99.90
39665;DHT22;26679;50.872;4.332;2022-09-24T03:44:19;13.70;99.90
39665;DHT22;26679;50.872;4.332;2022-09-24T03:46:45;13.80;99.90
39665;DHT22;26679;50.872;4.332;2022-09-24T03:49:11;13.80;99.90
39665;DHT22;26679;50.872;4.332;2022-09-24T03:51:36;13.70;99.90
39665;DHT22;26679;50.872;4.332;2022-09-24T03:54:02;13.80;99.90
39665;DHT22;26679;50.872;4.332;2022-09-24T03:56:27;13.80;99.90
39665;DHT22;26679;50.872;4.332;2022-09-24T03:58:53;13.70;99.90
39665;DHT22;26679;50.872;4.332;2022-09-24T04:01:18;13.70;99.90
39665;DHT22;26679;50.872;4.332;2022-09-24T04:03:45;13.70;99.90
39665;DHT22;26679;50.872;4.332;2022-09-24T04:06:11;13.70;99.90
39665;DHT22;26679;50.872;4.332;2022-09-24T04:08:36;13.60;99.90
39665;DHT22;26679;50.872;4.332;2022-09-24T04:11:02;13.60;99.90
39665;DHT22;26679;50.872;4.332;2022-09-24T04:13:31;13.60;99.90
39665;DHT22;26679;50.872;4.332;2022-09-24T04:16:00;13.60;99.90
39665;DHT22;26679;50.872;4.332;2022-09-24T04:18:25;13.70;99.90
39665;DHT22;26679;50.872;4.332;2022-09-24T04:20:55;13.70;99.90
39665;DHT22;26679;50.872;4.332;2022-09-24T04:23:21;13.70;99.90
39665;DHT22;26679;50.872;4.332;2022-09-24T04:25:47;13.70;99.90
39665;DHT22;26679;50.872;4.332;2022-09-24T04:28:12;13.80;99.90
39665;DHT22;26679;50.872;4.332;2022-09-24T04:30:38;13.80;99.90
39665;DHT22;26679;50.872;4.332;2022-09-24T04:33:04;13.80;99.90
39665;DHT22;26679;50.872;4.332;2022-09-24T04:35:30;13.80;99.90
39665;DHT22;26679;50.872;4.332;2022-09-24T04:37:56;13.80;99.90
39665;DHT22;26679;50.872;4.332;2022-09-24T04:40:22;13.70;99.90
39665;DHT22;26679;50.872;4.332;2022-09-24T04:42:48;13.70;99.90
39665;DHT22;26679;50.872;4.332;2022-09-24T04:45:14;13.70;99.90
39665;DHT22;26679;50.872;4.332;2022-09-24T04:47:45;13.70;99.90
39665;DHT22;26679;50.872;4.332;2022-09-24T04:50:10;13.80;99.90
39665;DHT22;26679;50.872;4.332;2022-09-24T04:52:37;13.80;99.90
39665;DHT22;26679;50.872;4.332;2022-09-24T04:55:03;13.70;99.90
39665;DHT22;26679;50.872;4.332;2022-09-24T04:57:29;13.70;99.90
39665;DHT22;26679;50.872;4.332;2022-09-24T04:59:59;13.70;99.90
39665;DHT22;26679;50.872;4.332;2022-09-24T05:02:24;13.70;99.90
39665;DHT22;26679;50.872;4.332;2022-09-24T05:04:50;13.70;99.90
39665;DHT22;26679;50.872;4.332;2022-09-24T05:07:16;13.70;99.90
39665;DHT22;26679;50.872;4.332;2022-09-24T05:09:41;13.70;99.90
39665;DHT22;26679;50.872;4.332;2022-09-24T05:12:07;13.70;99.90
39665;DHT22;26679;50.872;4.332;2022-09-24T05:14:32;13.70;99.90
39665;DHT22;26679;50.872;4.332;2022-09-24T05:16:58;13.70;99.90
39665;DHT22;26679;50.872;4.332;2022-09-24T05:19:23;13.70;99.90
39665;DHT22;26679;50.872;4.332;2022-09-24T05:21:49;13.60;99.90
39665;DHT22;26679;50.872;4.332;2022-09-24T05:24:14;13.60;99.90
39665;DHT22;26679;50.872;4.332;2022-09-24T05:26:40;13.70;99.90
39665;DHT22;26679;50.872;4.332;2022-09-24T05:29:18;13.70;99.90
39665;DHT22;26679;50.872;4.332;2022-09-24T05:31:43;13.70;99.90
39665;DHT22;26679;50.872;4.332;2022-09-24T05:34:09;13.70;99.90
39665;DHT22;26679;50.872;4.332;2022-09-24T05:36:34;13.60;99.90
39665;DHT22;26679;50.872;4.332;2022-09-24T05:39:00;13.70;99.90
39665;DHT22;26679;50.872;4.332;2022-09-24T05:41:25;13.70;99.90
39665;DHT22;26679;50.872;4.332;2022-09-24T05:43:51;13.70;99.90
39665;DHT22;26679;50.872;4.332;2022-09-24T05:46:16;13.70;99.90
39665;DHT22;26679;50.872;4.332;2022-09-24T05:48:42;13.70;99.90
39665;DHT22;26679;50.872;4.332;2022-09-24T05:51:07;13.70;99.90
39665;DHT22;26679;50.872;4.332;2022-09-24T05:53:33;13.80;99.90
39665;DHT22;26679;50.872;4.332;2022-09-24T05:55:59;13.80;99.90
39665;DHT22;26679;50.872;4.332;2022-09-24T05:58:24;13.80;99.90
39665;DHT22;26679;50.872;4.332;2022-09-24T06:00:50;13.90;99.90
39665;DHT22;26679;50.872;4.332;2022-09-24T06:03:17;13.90;99.90
39665;DHT22;26679;50.872;4.332;2022-09-24T06:05:43;13.90;99.90
39665;DHT22;26679;50.872;4.332;2022-09-24T06:08:10;13.90;99.90
39665;DHT22;26679;50.872;4.332;2022-09-24T06:10:36;13.90;99.90
39665;DHT22;26679;50.872;4.332;2022-09-24T06:13:01;13.90;99.90
39665;DHT22;26679;50.872;4.332;2022-09-24T06:15:28;13.90;99.90
39665;DHT22;26679;50.872;4.332;2022-09-24T06:17:53;13.90;99.90
39665;DHT22;26679;50.872;4.332;2022-09-24T06:20:19;13.90;99.90
39665;DHT22;26679;50.872;4.332;2022-09-24T06:22:45;13.90;99.90
39665;DHT22;26679;50.872;4.332;2022-09-24T06:25:10;13.90;99.90
39665;DHT22;26679;50.872;4.332;2022-09-24T06:27:36;13.90;99.90
39665;DHT22;26679;50.872;4.332;2022-09-24T06:30:02;13.90;99.90
39665;DHT22;26679;50.872;4.332;2022-09-24T06:32:28;13.80;99.90
39665;DHT22;26679;50.872;4.332;2022-09-24T06:34:54;13.80;99.90
39665;DHT22;26679;50.872;4.332;2022-09-24T06:37:20;13.90;99.90
39665;DHT22;26679;50.872;4.332;2022-09-24T06:39:45;14.00;99.90
39665;DHT22;26679;50.872;4.332;2022-09-24T06:42:11;13.90;99.90
39665;DHT22;26679;50.872;4.332;2022-09-24T06:44:36;13.90;99.90
39665;DHT22;26679;50.872;4.332;2022-09-24T06:47:02;13.90;99.90
39665;DHT22;26679;50.872;4.332;2022-09-24T06:49:27;14.00;99.90
39665;DHT22;26679;50.872;4.332;2022-09-24T06:51:53;13.90;99.90
39665;DHT22;26679;50.872;4.332;2022-09-24T06:54:19;13.90;99.90
39665;DHT22;26679;50.872;4.332;2022-09-24T06:56:45;14.00;99.90
39665;DHT22;26679;50.872;4.332;2022-09-24T06:59:11;13.90;99.90
39665;DHT22;26679;50.872;4.332;2022-09-24T07:01:36;13.90;99.90
39665;DHT22;26679;50.872;4.332;2022-09-24T07:04:02;13.90;99.90
39665;DHT22;26679;50.872;4.332;2022-09-24T07:06:27;13.90;99.90
39665;DHT22;26679;50.872;4.332;2022-09-24T07:09:13;13.90;99.90
39665;DHT22;26679;50.872;4.332;2022-09-24T07:11:38;13.90;99.90
39665;DHT22;26679;50.872;4.332;2022-09-24T07:14:04;13.80;99.90
39665;DHT22;26679;50.872;4.332;2022-09-24T07:16:29;13.70;99.90
39665;DHT22;26679;50.872;4.332;2022-09-24T07:18:55;13.80;99.90
39665;DHT22;26679;50.872;4.332;2022-09-24T07:21:20;13.80;99.90
39665;DHT22;26679;50.872;4.332;2022-09-24T07:23:46;13.80;99.90
39665;DHT22;26679;50.872;4.332;2022-09-24T07:26:12;13.80;99.90
39665;DHT22;26679;50.872;4.332;2022-09-24T07:28:37;13.90;99.90
39665;DHT22;26679;50.872;4.332;2022-09-24T07:31:03;13.90;99.90
39665;DHT22;26679;50.872;4.332;2022-09-24T07:33:29;13.90;99.90
39665;DHT22;26679;50.872;4.332;2022-09-24T07:35:55;13.90;99.90
39665;DHT22;26679;50.872;4.332;2022-09-24T07:38:20;13.90;99.90
39665;DHT22;26679;50.872;4.332;2022-09-24T07:40:46;13.90;99.90
39665;DHT22;26679;50.872;4.332;2022-09-24T07:43:12;14.00;99.90
39665;DHT22;26679;50.872;4.332;2022-09-24T07:45:39;14.10;99.90
39665;DHT22;26679;50.872;4.332;2022-09-24T07:48:05;14.30;99.90
39665;DHT22;26679;50.872;4.332;2022-09-24T07:50:31;14.20;99.90
39665;DHT22;26679;50.872;4.332;2022-09-24T07:52:57;14.40;99.90
39665;DHT22;26679;50.872;4.332;2022-09-24T07:55:22;14.40;99.90
39665;DHT22;26679;50.872;4.332;2022-09-24T07:57:49;14.40;99.90
39665;DHT22;26679;50.872;4.332;2022-09-24T08:00:15;14.50;99.90
39665;DHT22;26679;50.872;4.332;2022-09-24T08:02:42;14.60;99.90
39665;DHT22;26679;50.872;4.332;2022-09-24T08:05:08;14.70;99.90
39665;DHT22;26679;50.872;4.332;2022-09-24T08:07:34;14.70;99.90
39665;DHT22;26679;50.872;4.332;2022-09-24T08:09:59;14.70;99.90
39665;DHT22;26679;50.872;4.332;2022-09-24T08:12:25;14.80;99.90
39665;DHT22;26679;50.872;4.332;2022-09-24T08:14:52;14.90;99.90
39665;DHT22;26679;50.872;4.332;2022-09-24T08:17:18;15.00;99.90
39665;DHT22;26679;50.872;4.332;2022-09-24T08:19:43;15.00;99.90
39665;DHT22;26679;50.872;4.332;2022-09-24T08:22:11;15.20;99.90
39665;DHT22;26679;50.872;4.332;2022-09-24T08:24:41;15.20;99.90
39665;DHT22;26679;50.872;4.332;2022-09-24T08:27:07;15.10;99.90
39665;DHT22;26679;50.872;4.332;2022-09-24T08:29:33;15.10;99.90
39665;DHT22;26679;50.872;4.332;2022-09-24T08:31:59;14.90;99.90
39665;DHT22;26679;50.872;4.332;2022-09-24T08:34:24;14.90;99.90
39665;DHT22;26679;50.872;4.332;2022-09-24T08:36:50;14.90;99.90
39665;DHT22;26679;50.872;4.332;2022-09-24T08:39:15;14.70;99.90
39665;DHT22;26679;50.872;4.332;2022-09-24T08:44:26;14.70;99.90
39665;DHT22;26679;50.872;4.332;2022-09-24T08:47:04;14.70;99.90
39665;DHT22;26679;50.872;4.332;2022-09-24T08:49:46;14.60;99.90
39665;DHT22;26679;50.872;4.332;2022-09-24T08:54:49;14.60;99.90
39665;DHT22;26679;50.872;4.332;2022-09-24T08:57:15;14.60;99.90
39665;DHT22;26679;50.872;4.332;2022-09-24T08:59:51;14.60;99.90
39665;DHT22;26679;50.872;4.332;2022-09-24T09:10:23;14.60;99.90
39665;DHT22;26679;50.872;4.332;2022-09-24T09:12:55;14.70;99.90
39665;DHT22;26679;50.872;4.332;2022-09-24T09:15:23;14.70;99.90
39665;DHT22;26679;50.872;4.332;2022-09-24T09:17:51;14.70;99.90
39665;DHT22;26679;50.872;4.332;2022-09-24T09:22:48;14.60;99.90
39665;DHT22;26679;50.872;4.332;2022-09-24T09:25:21;14.60;99.90
39665;DHT22;26679;50.872;4.332;2022-09-24T09:27:52;14.60;99.90
39665;DHT22;26679;50.872;4.332;2022-09-24T09:30:20;14.60;99.90
39665;DHT22;26679;50.872;4.332;2022-09-24T09:40:35;14.80;99.90
39665;DHT22;26679;50.872;4.332;2022-09-24T09:43:03;14.90;99.90
39665;DHT22;26679;50.872;4.332;2022-09-24T09:45:33;15.00;99.90
39665;DHT22;26679;50.872;4.332;2022-09-24T09:48:00;15.00;99.90
39665;DHT22;26679;50.872;4.332;2022-09-24T09:52:54;14.70;99.90
39665;DHT22;26679;50.872;4.332;2022-09-24T09:55:21;14.70;99.90
39665;DHT22;26679;50.872;4.332;2022-09-24T09:57:47;14.60;99.90
39665;DHT22;26679;50.872;4.332;2022-09-24T10:00:32;14.60;99.90
39665;DHT22;26679;50.872;4.332;2022-09-24T10:02:58;14.60;99.90
39665;DHT22;26679;50.872;4.332;2022-09-24T10:05:24;14.50;99.90
39665;DHT22;26679;50.872;4.332;2022-09-24T10:07:53;14.50;99.90
39665;DHT22;26679;50.872;4.332;2022-09-24T10:10:20;14.60;99.90
39665;DHT22;26679;50.872;4.332;2022-09-24T10:12:51;14.70;99.90
39665;DHT22;26679;50.872;4.332;2022-09-24T10:15:17;14.60;99.90
39665;DHT22;26679;50.872;4.332;2022-09-24T10:17:43;14.60;99.90
39665;DHT22;26679;50.872;4.332;2022-09-24T10:22:56;14.50;99.90
39665;DHT22;26679;50.872;4.332;2022-09-24T10:25:26;14.40;99.90
39665;DHT22;26679;50.872;4.332;2022-09-24T10:27:56;14.30;99.90
39665;DHT22;26679;50.872;4.332;2022-09-24T10:33:18;14.10;99.90
39665;DHT22;26679;50.872;4.332;2022-09-24T10:35:44;14.10;99.90
39665;DHT22;26679;50.872;4.332;2022-09-24T10:38:14;14.20;99.90
39665;DHT22;26679;50.872;4.332;2022-09-24T10:40:40;14.20;99.90
39665;DHT22;26679;50.872;4.332;2022-09-24T10:43:05;14.30;99.90
39665;DHT22;26679;50.872;4.332;2022-09-24T10:45:37;14.30;99.90
39665;DHT22;26679;50.872;4.332;2022-09-24T10:48:20;14.40;99.90
39665;DHT22;26679;50.872;4.332;2022-09-24T10:50:50;14.50;99.90
39665;DHT22;26679;50.872;4.332;2022-09-24T10:59:10;14.50;99.90
39665;DHT22;26679;50.872;4.332;2022-09-24T11:09:10;14.60;99.90
39665;DHT22;26679;50.872;4.332;2022-09-24T11:19:32;14.70;99.90
39665;DHT22;26679;50.872;4.332;2022-09-24T11:32:17;14.80;99.90
39665;DHT22;26679;50.872;4.332;2022-09-24T11:37:18;14.80;99.90
39665;DHT22;26679;50.872;4.332;2022-09-24T11:39:50;14.90;99.90
39665;DHT22;26679;50.872;4.332;2022-09-24T11:57:37;15.10;99.90
39665;DHT22;26679;50.872;4.332;2022-09-24T12:00:11;15.00;99.90
39665;DHT22;26679;50.872;4.332;2022-09-24T12:12:59;14.90;99.90
39665;DHT22;26679;50.872;4.332;2022-09-24T12:15:29;14.80;99.90
39665;DHT22;26679;50.872;4.332;2022-09-24T12:18:07;14.70;99.90
39665;DHT22;26679;50.872;4.332;2022-09-24T12:20:47;14.70;99.90
39665;DHT22;26679;50.872;4.332;2022-09-24T12:23:15;14.70;99.90
39665;DHT22;26679;50.872;4.332;2022-09-24T12:25:43;14.70;99.90
39665;DHT22;26679;50.872;4.332;2022-09-24T12:28:13;14.70;99.90
39665;DHT22;26679;50.872;4.332;2022-09-24T12:30:46;14.80;99.90
39665;DHT22;26679;50.872;4.332;2022-09-24T12:36:00;14.90;99.90
39665;DHT22;26679;50.872;4.332;2022-09-24T12:38:34;14.90;99.90
39665;DHT22;26679;50.872;4.332;2022-09-24T12:43:44;15.00;99.90
39665;DHT22;26679;50.872;4.332;2022-09-24T12:46:14;15.10;99.90
39665;DHT22;26679;50.872;4.332;2022-09-24T12:48:41;15.10;99.90
39665;DHT22;26679;50.872;4.332;2022-09-24T12:51:08;15.10;99.90
39665;DHT22;26679;50.872;4.332;2022-09-24T12:53:35;15.10;99.90
39665;DHT22;26679;50.872;4.332;2022-09-24T12:56:02;15.00;99.90
39665;DHT22;26679;50.872;4.332;2022-09-24T12:58:29;15.00;99.90
39665;DHT22;26679;50.872;4.332;2022-09-24T13:01:04;14.90;99.90
39665;DHT22;26679;50.872;4.332;2022-09-24T13:03:34;14.90;99.90
39665;DHT22;26679;50.872;4.332;2022-09-24T13:06:00;14.80;99.90
39665;DHT22;26679;50.872;4.332;2022-09-24T13:11:03;14.70;99.90
39665;DHT22;26679;50.872;4.332;2022-09-24T13:13:39;14.70;99.90
39665;DHT22;26679;50.872;4.332;2022-09-24T13:16:15;14.70;99.90
39665;DHT22;26679;50.872;4.332;2022-09-24T13:18:42;14.90;99.90
39665;DHT22;26679;50.872;4.332;2022-09-24T13:21:16;15.00;99.90
39665;DHT22;26679;50.872;4.332;2022-09-24T13:23:44;15.00;99.90
39665;DHT22;26679;50.872;4.332;2022-09-24T13:26:11;15.00;99.90
39665;DHT22;26679;50.872;4.332;2022-09-24T13:43:58;15.00;99.90
39665;DHT22;26679;50.872;4.332;2022-09-24T13:46:25;15.00;99.90
39665;DHT22;26679;50.872;4.332;2022-09-24T13:48:56;15.00;99.90
39665;DHT22;26679;50.872;4.332;2022-09-24T13:51:27;15.10;99.90
39665;DHT22;26679;50.872;4.332;2022-09-24T13:54:01;15.10;99.90
39665;DHT22;26679;50.872;4.332;2022-09-24T13:56:28;15.10;99.90
39665;DHT22;26679;50.872;4.332;2022-09-24T13:59:01;15.10;99.90
39665;DHT22;26679;50.872;4.332;2022-09-24T14:01:29;15.10;99.90
39665;DHT22;26679;50.872;4.332;2022-09-24T14:04:00;15.10;99.90
39665;DHT22;26679;50.872;4.332;2022-09-24T14:08:59;15.20;99.90
39665;DHT22;26679;50.872;4.332;2022-09-24T14:11:25;15.20;99.90
39665;DHT22;26679;50.872;4.332;2022-09-24T14:13:51;15.30;99.90
39665;DHT22;26679;50.872;4.332;2022-09-24T14:16:22;15.30;99.90
39665;DHT22;26679;50.872;4.332;2022-09-24T14:18:59;15.20;99.90
39665;DHT22;26679;50.872;4.332;2022-09-24T14:21:34;15.10;99.90
39665;DHT22;26679;50.872;4.332;2022-09-24T14:29:05;15.20;99.90
39665;DHT22;26679;50.872;4.332;2022-09-24T14:31:40;15.20;99.90
39665;DHT22;26679;50.872;4.332;2022-09-24T14:34:06;15.30;99.90
39665;DHT22;26679;50.872;4.332;2022-09-24T14:36:33;15.40;99.90
39665;DHT22;26679;50.872;4.332;2022-09-24T14:39:00;15.40;99.90
39665;DHT22;26679;50.872;4.332;2022-09-24T14:41:33;15.40;99.90
39665;DHT22;26679;50.872;4.332;2022-09-24T14:44:04;15.50;99.90
39665;DHT22;26679;50.872;4.332;2022-09-24T14:46:31;15.60;99.90
39665;DHT22;26679;50.872;4.332;2022-09-24T14:51:34;15.70;99.90
39665;DHT22;26679;50.872;4.332;2022-09-24T14:54:01;15.80;99.90
39665;DHT22;26679;50.872;4.332;2022-09-24T14:56:30;15.70;99.90
39665;DHT22;26679;50.872;4.332;2022-09-24T14:58:57;15.60;99.90
39665;DHT22;26679;50.872;4.332;2022-09-24T15:01:24;15.60;99.90
39665;DHT22;26679;50.872;4.332;2022-09-24T15:03:50;15.60;99.90
39665;DHT22;26679;50.872;4.332;2022-09-24T15:06:24;15.60;99.90
39665;DHT22;26679;50.872;4.332;2022-09-24T15:08:58;15.60;99.90
39665;DHT22;26679;50.872;4.332;2022-09-24T15:11:25;15.50;99.90
39665;DHT22;26679;50.872;4.332;2022-09-24T15:13:59;15.60;99.90
39665;DHT22;26679;50.872;4.332;2022-09-24T15:21:38;15.70;99.90
39665;DHT22;26679;50.872;4.332;2022-09-24T15:24:03;15.60;99.90
39665;DHT22;26679;50.872;4.332;2022-09-24T15:26:30;15.60;99.90
39665;DHT22;26679;50.872;4.332;2022-09-24T15:28:57;15.60;99.90
39665;DHT22;26679;50.872;4.332;2022-09-24T15:31:23;15.50;99.90
39665;DHT22;26679;50.872;4.332;2022-09-24T15:33:50;15.50;99.90
39665;DHT22;26679;50.872;4.332;2022-09-24T15:36:15;15.70;99.90
39665;DHT22;26679;50.872;4.332;2022-09-24T15:38:51;15.50;99.90
39665;DHT22;26679;50.872;4.332;2022-09-24T15:41:17;15.40;99.90
39665;DHT22;26679;50.872;4.332;2022-09-24T15:43:43;15.50;99.90
39665;DHT22;26679;50.872;4.332;2022-09-24T15:46:09;15.50;99.90
39665;DHT22;26679;50.872;4.332;2022-09-24T15:48:35;15.60;99.90
39665;DHT22;26679;50.872;4.332;2022-09-24T15:51:00;15.70;99.90
39665;DHT22;26679;50.872;4.332;2022-09-24T15:53:26;15.60;99.90
39665;DHT22;26679;50.872;4.332;2022-09-24T15:55:57;15.60;99.90
39665;DHT22;26679;50.872;4.332;2022-09-24T15:58:23;15.60;99.90
39665;DHT22;26679;50.872;4.332;2022-09-24T16:00:49;15.70;99.90
39665;DHT22;26679;50.872;4.332;2022-09-24T16:03:25;15.60;99.90
39665;DHT22;26679;50.872;4.332;2022-09-24T16:05:51;15.60;99.90
39665;DHT22;26679;50.872;4.332;2022-09-24T16:08:17;15.80;99.90
39665;DHT22;26679;50.872;4.332;2022-09-24T16:10:43;15.90;99.90
39665;DHT22;26679;50.872;4.332;2022-09-24T16:13:09;15.90;99.90
39665;DHT22;26679;50.872;4.332;2022-09-24T16:15:35;15.80;99.90
39665;DHT22;26679;50.872;4.332;2022-09-24T16:18:01;15.60;99.90
39665;DHT22;26679;50.872;4.332;2022-09-24T16:20:26;15.70;99.90
39665;DHT22;26679;50.872;4.332;2022-09-24T16:22:52;15.70;99.90
39665;DHT22;26679;50.872;4.332;2022-09-24T16:25:17;15.70;99.90
39665;DHT22;26679;50.872;4.332;2022-09-24T16:27:43;15.60;99.90
39665;DHT22;26679;50.872;4.332;2022-09-24T16:30:08;15.70;99.90
39665;DHT22;26679;50.872;4.332;2022-09-24T16:32:34;15.80;99.90
39665;DHT22;26679;50.872;4.332;2022-09-24T16:35:00;15.80;99.90
39665;DHT22;26679;50.872;4.332;2022-09-24T16:37:26;15.70;99.90
39665;DHT22;26679;50.872;4.332;2022-09-24T16:39:52;15.70;99.90
39665;DHT22;26679;50.872;4.332;2022-09-24T16:42:17;15.60;99.90
39665;DHT22;26679;50.872;4.332;2022-09-24T16:44:43;15.60;99.90
39665;DHT22;26679;50.872;4.332;2022-09-24T16:47:08;15.60;99.90
39665;DHT22;26679;50.872;4.332;2022-09-24T16:49:34;15.60;99.90
39665;DHT22;26679;50.872;4.332;2022-09-24T16:51:59;15.50;99.90
39665;DHT22;26679;50.872;4.332;2022-09-24T16:54:28;15.40;99.90
39665;DHT22;26679;50.872;4.332;2022-09-24T16:56:55;15.40;99.90
39665;DHT22;26679;50.872;4.332;2022-09-24T16:59:22;15.50;99.90
39665;DHT22;26679;50.872;4.332;2022-09-24T17:01:47;15.50;99.90
39665;DHT22;26679;50.872;4.332;2022-09-24T17:04:13;15.20;99.90
39665;DHT22;26679;50.872;4.332;2022-09-24T17:06:38;15.20;99.90
39665;DHT22;26679;50.872;4.332;2022-09-24T17:09:04;15.20;99.90
39665;DHT22;26679;50.872;4.332;2022-09-24T17:11:44;15.30;99.90
39665;DHT22;26679;50.872;4.332;2022-09-24T17:14:14;15.30;99.90
39665;DHT22;26679;50.872;4.332;2022-09-24T17:16:40;15.40;99.90
39665;DHT22;26679;50.872;4.332;2022-09-24T17:19:06;15.40;99.90
39665;DHT22;26679;50.872;4.332;2022-09-24T17:21:32;15.40;99.90
39665;DHT22;26679;50.872;4.332;2022-09-24T17:23:58;15.20;99.90
39665;DHT22;26679;50.872;4.332;2022-09-24T17:26:23;15.20;99.90
39665;DHT22;26679;50.872;4.332;2022-09-24T17:28:51;15.10;99.90
39665;DHT22;26679;50.872;4.332;2022-09-24T17:31:19;15.10;99.90
39665;DHT22;26679;50.872;4.332;2022-09-24T17:33:46;14.90;99.90
39665;DHT22;26679;50.872;4.332;2022-09-24T17:36:12;14.90;99.90
39665;DHT22;26679;50.872;4.332;2022-09-24T17:38:40;14.70;99.90
39665;DHT22;26679;50.872;4.332;2022-09-24T17:41:07;14.60;99.90
39665;DHT22;26679;50.872;4.332;2022-09-24T17:43:33;14.60;99.90
39665;DHT22;26679;50.872;4.332;2022-09-24T17:45:59;14.60;99.90
39665;DHT22;26679;50.872;4.332;2022-09-24T17:48:27;14.70;99.90
39665;DHT22;26679;50.872;4.332;2022-09-24T17:50:54;14.80;99.90
39665;DHT22;26679;50.872;4.332;2022-09-24T17:53:19;14.80;99.90
39665;DHT22;26679;50.872;4.332;2022-09-24T17:55:48;14.90;99.90
39665;DHT22;26679;50.872;4.332;2022-09-24T17:58:14;14.90;99.90
39665;DHT22;26679;50.872;4.332;2022-09-24T18:00:39;14.90;99.90
39665;DHT22;26679;50.872;4.332;2022-09-24T18:03:05;14.80;99.90
39665;DHT22;26679;50.872;4.332;2022-09-24T18:05:30;14.90;99.90
39665;DHT22;26679;50.872;4.332;2022-09-24T18:07:56;14.70;99.90
39665;DHT22;26679;50.872;4.332;2022-09-24T18:10:21;14.70;99.90